Terminal Aerodrome Forecast
Issued by NWS

Home | Current Version | Previous Version | Text Only | Print | Product List | Glossary On
Versions: 1 2 3 4 5 6 7 8 9 10 11 12 13 14
000
FTUS45 KABQ 271100
TAFAEG
TAF
KAEG 271140Z 2712/2812 32006KT P6SM FEW035 FEW120
     FM271800 26010G18KT P6SM VCTS SCT060CB BKN120
     FM272200 28010KT P6SM VCSH SCT070 SCT120
     FM280000 31008KT P6SM FEW120=

USA.gov is the U.S. government's official web portal to all federal, state and local government web resources and services.